Welcome to Des Moines Iowa Weather. I am an independent private personal weather station on the Northwest Side of Des Moines, Iowa. Just East of Windsor Heights and just West of Glendale . This site is also mobile friendly.

There are no active watches, warnings or advisories


Visit our other weather sites:

Historical Data

Weather Station Setup



Weather Underground History page Text

Daily Summary for January 7, 2017 Units:  English    Metric   Both
« Previous Day
Next Day »
Daily Weekly Monthly Yearly Custom
  High: Low: Average:
Temperature: 21.2 °F 6.9 °F 13.8 °F
Dew Point: 10.0 °F 1.0 °F 5.7 °F
Humidity: 84 % 55 % 70 %
Wind Speed: 12.0 mph 0.0 mph 1.4 mph
Wind Gust: 12.0 mph - -
Wind:- - WSW
Pressure: 30.81 in 30.50 in -
Precipitation: 0.00 in    
Historical Graphs
 
 
Tabular Data for January 7, 2017
Time Temperature Dew Point Pressure Wind Wind Speed Wind Gust Humidity Rainfall Rate (Hourly)
00:00 7.6 °F 1.6 °F 30.51 in Calm   2.0 mph 76 % 0.00 in
00:05 7.8 °F 2.0 °F 30.50 in ESE 1.0 mph 2.0 mph 77 % 0.00 in
00:10 7.7 °F 1.7 °F 30.51 in Calm   1.0 mph 76 % 0.00 in
00:15 7.9 °F 2.2 °F 30.51 in Calm   2.0 mph 77 % 0.00 in
00:20 8.2 °F 3.0 °F 30.50 in Calm   1.0 mph 78 % 0.00 in
00:25 7.9 °F 2.2 °F 30.51 in Calm   2.0 mph 77 % 0.00 in
00:30 8.2 °F 2.5 °F 30.51 in Calm   1.0 mph 77 % 0.00 in
00:35 8.4 °F 3.0 °F 30.50 in Calm   1.0 mph 78 % 0.00 in
00:40 8.2 °F 2.5 °F 30.51 in Calm   1.0 mph 77 % 0.00 in
00:45 8.5 °F 2.8 °F 30.51 in Calm   2.0 mph 77 % 0.00 in
00:50 8.8 °F 3.0 °F 30.51 in Calm   2.0 mph 78 % 0.00 in
00:55 8.5 °F 2.8 °F 30.51 in Calm   2.0 mph 77 % 0.00 in
01:00 8.8 °F 2.8 °F 30.51 in Calm   2.0 mph 76 % 0.00 in
01:05 9.1 °F 3.0 °F 30.50 in Calm   2.0 mph 77 % 0.00 in
01:10 8.8 °F 2.8 °F 30.51 in Calm   2.0 mph 76 % 0.00 in
01:15 9.2 °F 3.2 °F 30.51 in Calm   2.0 mph 76 % 0.00 in
01:20 9.6 °F 4.0 °F 30.51 in Calm   2.0 mph 77 % 0.00 in
01:25 9.2 °F 3.2 °F 30.51 in Calm   2.0 mph 76 % 0.00 in
01:30 9.2 °F 3.2 °F 30.51 in Calm   2.0 mph 76 % 0.00 in
01:35 10.0 °F 4.0 °F 30.50 in Calm   2.0 mph 77 % 0.00 in
01:40 9.7 °F 3.7 °F 30.50 in Calm   2.0 mph 76 % 0.00 in
01:45 9.7 °F 3.7 °F 30.50 in Calm   2.0 mph 76 % 0.00 in
01:50 10.3 °F 4.0 °F 30.50 in Calm   1.0 mph 76 % 0.00 in
01:55 10.1 °F 3.8 °F 30.51 in Calm   2.0 mph 75 % 0.00 in
02:00 10.3 °F 3.7 °F 30.51 in Calm   3.0 mph 74 % 0.00 in
02:05 10.4 °F 4.0 °F 30.51 in ESE 2.0 mph 3.0 mph 75 % 0.00 in
02:10 10.3 °F 3.7 °F 30.51 in Calm   3.0 mph 74 % 0.00 in
02:15 10.3 °F 3.7 °F 30.53 in Calm   3.0 mph 74 % 0.00 in
02:20 10.3 °F 4.0 °F 30.52 in ESE 1.0 mph 1.0 mph 75 % 0.00 in
02:25 10.3 °F 3.7 °F 30.53 in Calm   3.0 mph 74 % 0.00 in
02:30 10.3 °F 3.7 °F 30.53 in Calm   2.0 mph 74 % 0.00 in
02:35 10.2 °F 4.0 °F 30.53 in Calm     76 % 0.00 in
02:40 10.3 °F 3.7 °F 30.53 in Calm   2.0 mph 74 % 0.00 in
02:45 10.2 °F 3.9 °F 30.53 in Calm   2.0 mph 75 % 0.00 in
02:50 10.2 °F 4.0 °F 30.53 in Calm   1.0 mph 76 % 0.00 in
02:55 10.2 °F 3.9 °F 30.53 in Calm   2.0 mph 75 % 0.00 in
03:00 10.2 °F 3.9 °F 30.53 in Calm   2.0 mph 75 % 0.00 in
03:05 10.3 °F 4.0 °F 30.53 in Calm   1.0 mph 76 % 0.00 in
03:10 10.2 °F 3.9 °F 30.53 in Calm   1.0 mph 75 % 0.00 in
03:15 10.2 °F 3.9 °F 30.53 in Calm   1.0 mph 75 % 0.00 in
03:20 10.5 °F 5.0 °F 30.52 in Calm   1.0 mph 77 % 0.00 in
03:25 10.3 °F 4.3 °F 30.53 in Calm   1.0 mph 76 % 0.00 in
03:30 10.5 °F 4.5 °F 30.52 in Calm   2.0 mph 76 % 0.00 in
03:35 10.7 °F 5.0 °F 30.52 in Calm   2.0 mph 77 % 0.00 in
03:40 10.5 °F 4.5 °F 30.52 in Calm   2.0 mph 76 % 0.00 in
03:45 10.7 °F 4.7 °F 30.53 in Calm   2.0 mph 76 % 0.00 in
03:50 10.9 °F 5.0 °F 30.52 in Calm     77 % 0.00 in
03:55 10.7 °F 4.7 °F 30.53 in Calm   2.0 mph 76 % 0.00 in
04:00 10.9 °F 4.9 °F 30.53 in Calm   2.0 mph 76 % 0.00 in
04:05 11.1 °F 5.0 °F 30.52 in Calm   2.0 mph 77 % 0.00 in
04:10 10.9 °F 4.9 °F 30.53 in Calm   2.0 mph 76 % 0.00 in
04:15 11.1 °F 5.0 °F 30.53 in Calm   2.0 mph 76 % 0.00 in
04:20 11.2 °F 5.0 °F 30.52 in Calm   1.0 mph 77 % 0.00 in
04:25 11.1 °F 5.0 °F 30.53 in Calm   2.0 mph 76 % 0.00 in
04:30 11.2 °F 5.1 °F 30.53 in Calm   1.0 mph 76 % 0.00 in
04:35 11.3 °F 5.0 °F 30.53 in Calm   1.0 mph 77 % 0.00 in
04:40 11.2 °F 5.1 °F 30.53 in Calm   1.0 mph 76 % 0.00 in
04:45 11.2 °F 5.1 °F 30.53 in Calm   1.0 mph 76 % 0.00 in
04:50 11.3 °F 5.0 °F 30.53 in Calm   1.0 mph 77 % 0.00 in
04:55 11.3 °F 5.2 °F 30.54 in Calm   1.0 mph 76 % 0.00 in
05:00 11.3 °F 5.2 °F 30.54 in Calm   1.0 mph 76 % 0.00 in
05:05 11.4 °F 6.0 °F 30.53 in Calm     78 % 0.00 in
05:10 11.3 °F 5.5 °F 30.54 in Calm     77 % 0.00 in
05:15 11.4 °F 5.6 °F 30.54 in Calm     77 % 0.00 in
05:20 11.5 °F 6.0 °F 30.54 in Calm     78 % 0.00 in
05:25 11.4 °F 5.6 °F 30.54 in Calm     77 % 0.00 in
05:30 11.5 °F 5.7 °F 30.55 in Calm     77 % 0.00 in
05:35 11.5 °F 6.0 °F 30.55 in Calm     78 % 0.00 in
05:40 11.5 °F 5.7 °F 30.55 in Calm     77 % 0.00 in
05:45 11.5 °F 5.7 °F 30.56 in Calm     77 % 0.00 in
05:50 11.5 °F 6.0 °F 30.56 in Calm     78 % 0.00 in
05:55 11.5 °F 5.7 °F 30.56 in Calm     77 % 0.00 in
06:00 11.5 °F 5.7 °F 30.56 in Calm     77 % 0.00 in
06:05 11.5 °F 5.7 °F 30.56 in Calm     77 % 0.00 in
06:06 11.5 °F 6.0 °F 30.56 in Calm     78 % 0.00 in
06:10 11.5 °F 5.7 °F 30.56 in Calm     77 % 0.00 in
06:15 11.5 °F 5.7 °F 30.56 in Calm     77 % 0.00 in
06:20 11.4 °F 6.0 °F 30.56 in Calm     78 % 0.00 in
06:25 11.5 °F 5.7 °F 30.56 in Calm     77 % 0.00 in
06:30 11.5 °F 5.7 °F 30.56 in Calm     77 % 0.00 in
06:35 11.5 °F 6.0 °F 30.57 in Calm     79 % 0.00 in
06:40 11.4 °F 5.9 °F 30.57 in Calm     78 % 0.00 in
06:45 11.4 °F 5.9 °F 30.57 in Calm     78 % 0.00 in
06:50 11.4 °F 5.9 °F 30.58 in Calm     78 % 0.00 in
06:51 11.5 °F 6.0 °F 30.57 in Calm     79 % 0.00 in
06:55 11.4 °F 5.9 °F 30.58 in Calm     78 % 0.00 in
07:00 11.5 °F 6.0 °F 30.58 in Calm     78 % 0.00 in
07:05 11.5 °F 6.0 °F 30.58 in Calm     78 % 0.00 in
07:06 11.4 °F 6.0 °F 30.58 in Calm     79 % 0.00 in
07:10 11.5 °F 6.0 °F 30.58 in Calm     78 % 0.00 in
07:15 11.3 °F 5.8 °F 30.59 in Calm     78 % 0.00 in
07:20 11.3 °F 5.8 °F 30.59 in Calm     78 % 0.00 in
07:21 11.1 °F 6.0 °F 30.59 in Calm     79 % 0.00 in
07:25 11.3 °F 5.8 °F 30.59 in Calm     78 % 0.00 in
07:30 11.1 °F 5.6 °F 30.60 in Calm     78 % 0.00 in
07:35 11.1 °F 5.6 °F 30.60 in Calm     78 % 0.00 in
07:36 10.9 °F 6.0 °F 30.60 in Calm     79 % 0.00 in
07:40 11.1 °F 5.6 °F 30.60 in Calm     78 % 0.00 in
07:45 10.8 °F 5.3 °F 30.60 in Calm     78 % 0.00 in
07:50 10.8 °F 5.3 °F 30.60 in Calm     78 % 0.00 in
07:51 10.5 °F 5.0 °F 30.60 in Calm     79 % 0.00 in
07:55 10.8 °F 5.3 °F 30.60 in Calm     78 % 0.00 in
08:00 10.8 °F 5.3 °F 30.60 in Calm     78 % 0.00 in
08:05 10.4 °F 4.9 °F 30.61 in Calm     78 % 0.00 in
08:06 10.0 °F 5.0 °F 30.61 in Calm     79 % 0.00 in
08:10 10.4 °F 4.9 °F 30.61 in Calm     78 % 0.00 in
08:15 10.4 °F 4.9 °F 30.61 in Calm     78 % 0.00 in
08:20 10.0 °F 4.5 °F 30.61 in Calm     78 % 0.00 in
08:21 9.5 °F 4.0 °F 30.61 in Calm     79 % 0.00 in
08:25 10.0 °F 4.5 °F 30.61 in Calm     78 % 0.00 in
08:30 10.0 °F 4.5 °F 30.61 in Calm     78 % 0.00 in
08:35 9.5 °F 4.3 °F 30.62 in Calm     79 % 0.00 in
08:36 9.3 °F 4.0 °F 30.62 in Calm     80 % 0.00 in
08:40 9.5 °F 4.3 °F 30.62 in Calm     79 % 0.00 in
08:45 9.3 °F 4.4 °F 30.63 in Calm     80 % 0.00 in
08:50 9.3 °F 4.4 °F 30.63 in Calm     80 % 0.00 in
08:51 9.2 °F 5.0 °F 30.63 in Calm     82 % 0.00 in
08:55 9.3 °F 4.4 °F 30.63 in Calm     80 % 0.00 in
09:00 9.3 °F 4.9 °F 30.64 in Calm   3.0 mph 82 % 0.00 in
09:05 9.3 °F 4.9 °F 30.64 in Calm   3.0 mph 82 % 0.00 in
09:06 10.5 °F 7.0 °F 30.64 in Calm   2.0 mph 84 % 0.00 in
09:10 9.3 °F 4.9 °F 30.64 in Calm   3.0 mph 82 % 0.00 in
09:15 10.7 °F 6.6 °F 30.64 in ESE 1.0 mph 4.0 mph 83 % 0.00 in
09:20 10.7 °F 6.6 °F 30.64 in ESE 1.0 mph 4.0 mph 83 % 0.00 in
09:21 12.4 °F 9.0 °F 30.65 in NE 3.0 mph 6.0 mph 84 % 0.00 in
09:25 10.7 °F 6.6 °F 30.64 in ESE 1.0 mph 4.0 mph 83 % 0.00 in
09:30 12.6 °F 7.9 °F 30.66 in NNE 2.0 mph 8.0 mph 81 % 0.00 in
09:35 12.6 °F 7.9 °F 30.66 in NNE 2.0 mph 8.0 mph 81 % 0.00 in
09:36 14.0 °F 9.0 °F 30.66 in NNW 1.0 mph 8.0 mph 80 % 0.00 in
09:40 12.6 °F 7.9 °F 30.66 in NNE 2.0 mph 8.0 mph 81 % 0.00 in
09:45 12.6 °F 7.9 °F 30.66 in NNE 2.0 mph 8.0 mph 81 % 0.00 in
09:50 14.0 °F 8.4 °F 30.66 in NW 3.0 mph 8.0 mph 78 % 0.00 in
09:51 14.7 °F 9.0 °F 30.66 in North 3.0 mph 9.0 mph 78 % 0.00 in
09:55 14.0 °F 8.4 °F 30.66 in NW 3.0 mph 8.0 mph 78 % 0.00 in
10:00 14.0 °F 8.4 °F 30.66 in NW 3.0 mph 8.0 mph 78 % 0.00 in
10:05 14.7 °F 8.5 °F 30.67 in NW 3.0 mph 9.0 mph 76 % 0.00 in
10:06 15.4 °F 9.0 °F 30.67 in NNE 5.0 mph 6.0 mph 77 % 0.00 in
10:10 14.7 °F 8.5 °F 30.67 in NW 3.0 mph 9.0 mph 76 % 0.00 in
10:15 14.7 °F 8.5 °F 30.67 in NW 3.0 mph 9.0 mph 76 % 0.00 in
10:20 15.5 °F 9.0 °F 30.68 in NNW 3.0 mph 10.0 mph 75 % 0.00 in
10:21 16.2 °F 10.0 °F 30.68 in NW 2.0 mph 6.0 mph 75 % 0.00 in
10:25 15.5 °F 9.0 °F 30.68 in NNW 3.0 mph 10.0 mph 75 % 0.00 in
10:30 16.3 °F 8.9 °F 30.68 in NW 3.0 mph 10.0 mph 72 % 0.00 in
10:35 16.3 °F 8.9 °F 30.68 in NW 3.0 mph 10.0 mph 72 % 0.00 in
10:36 16.8 °F 10.0 °F 30.68 in ENE 4.0 mph 11.0 mph 73 % 0.00 in
10:40 16.3 °F 8.9 °F 30.68 in NW 3.0 mph 10.0 mph 72 % 0.00 in
10:45 16.8 °F 9.4 °F 30.69 in NE 3.0 mph 11.0 mph 72 % 0.00 in
10:50 16.8 °F 9.4 °F 30.69 in NE 3.0 mph 11.0 mph 72 % 0.00 in
10:51 17.1 °F 10.0 °F 30.69 in NE 4.0 mph 8.0 mph 72 % 0.00 in
10:55 16.8 °F 9.4 °F 30.69 in NE 3.0 mph 11.0 mph 72 % 0.00 in
11:00 17.1 °F 9.3 °F 30.69 in NNE 3.0 mph 8.0 mph 71 % 0.00 in
11:05 17.1 °F 9.3 °F 30.69 in NNE 3.0 mph 8.0 mph 71 % 0.00 in
11:06 17.5 °F 10.0 °F 30.69 in WNW 4.0 mph 9.0 mph 72 % 0.00 in
11:10 17.1 °F 9.3 °F 30.69 in NNE 3.0 mph 8.0 mph 71 % 0.00 in
11:15 17.5 °F 9.7 °F 30.70 in NW 3.0 mph 9.0 mph 71 % 0.00 in
11:20 17.5 °F 9.7 °F 30.70 in NW 3.0 mph 9.0 mph 71 % 0.00 in
11:21 17.9 °F 10.0 °F 30.69 in NW 1.0 mph 12.0 mph 72 % 0.00 in
11:25 17.5 °F 9.7 °F 30.70 in NW 3.0 mph 9.0 mph 71 % 0.00 in
11:30 17.5 °F 9.7 °F 30.70 in NW 3.0 mph 9.0 mph 71 % 0.00 in
11:35 18.0 °F 9.9 °F 30.70 in WNW 3.0 mph 12.0 mph 70 % 0.00 in
11:36 18.2 °F 10.0 °F 30.69 in NW 2.0 mph 9.0 mph 71 % 0.00 in
11:40 18.0 °F 9.9 °F 30.70 in WNW 3.0 mph 12.0 mph 70 % 0.00 in
11:45 18.0 °F 9.9 °F 30.70 in WNW 3.0 mph 12.0 mph 70 % 0.00 in
11:50 18.1 °F 9.3 °F 30.70 in NW 4.0 mph 12.0 mph 68 % 0.00 in
11:51 18.3 °F 10.0 °F 30.69 in NNE 3.0 mph 10.0 mph 69 % 0.00 in
11:55 18.1 °F 9.3 °F 30.70 in NW 4.0 mph 12.0 mph 68 % 0.00 in
12:00 18.1 °F 9.3 °F 30.70 in NW 4.0 mph 12.0 mph 68 % 0.00 in
12:05 18.3 °F 9.2 °F 30.70 in NW 4.0 mph 12.0 mph 67 % 0.00 in
12:06 18.5 °F 9.0 °F 30.69 in WNW 5.0 mph 9.0 mph 67 % 0.00 in
12:10 18.3 °F 9.2 °F 30.70 in NW 4.0 mph 12.0 mph 67 % 0.00 in
12:15 18.5 °F 9.1 °F 30.70 in NW 3.0 mph 9.0 mph 66 % 0.00 in
12:20 18.5 °F 9.1 °F 30.70 in NW 3.0 mph 9.0 mph 66 % 0.00 in
12:22 18.9 °F 10.0 °F 30.69 in NNE 3.0 mph 9.0 mph 67 % 0.00 in
12:25 18.5 °F 9.1 °F 30.70 in NW 3.0 mph 9.0 mph 66 % 0.00 in
12:30 18.8 °F 9.0 °F 30.69 in NE 3.0 mph 10.0 mph 65 % 0.00 in
12:35 18.8 °F 9.0 °F 30.69 in NE 3.0 mph 10.0 mph 65 % 0.00 in
12:37 19.4 °F 10.0 °F 30.69 in NNW 1.0 mph 10.0 mph 66 % 0.00 in
12:40 18.8 °F 9.0 °F 30.69 in NE 3.0 mph 10.0 mph 65 % 0.00 in
12:45 19.3 °F 9.1 °F 30.69 in NW 3.0 mph 9.0 mph 64 % 0.00 in
12:50 19.3 °F 9.1 °F 30.69 in NW 3.0 mph 9.0 mph 64 % 0.00 in
12:52 20.0 °F 10.0 °F 30.68 in NW 4.0 mph 8.0 mph 65 % 0.00 in
12:55 19.3 °F 9.1 °F 30.69 in NW 3.0 mph 9.0 mph 64 % 0.00 in
13:00 19.3 °F 9.1 °F 30.69 in NW 3.0 mph 9.0 mph 64 % 0.00 in
13:05 20.0 °F 9.5 °F 30.69 in NW 3.0 mph 10.0 mph 63 % 0.00 in
13:07 20.2 °F 10.0 °F 30.68 in WNW 8.0 mph 9.0 mph 64 % 0.00 in
13:10 20.0 °F 9.5 °F 30.69 in NW 3.0 mph 10.0 mph 63 % 0.00 in
13:15 20.0 °F 9.5 °F 30.69 in NW 3.0 mph 10.0 mph 63 % 0.00 in
13:20 20.3 °F 9.4 °F 30.69 in NW 3.0 mph 9.0 mph 62 % 0.00 in
13:22 20.8 °F 10.0 °F 30.68 in NW 2.0 mph 5.0 mph 64 % 0.00 in
13:25 20.3 °F 9.4 °F 30.69 in NW 3.0 mph 9.0 mph 62 % 0.00 in
13:30 20.3 °F 9.4 °F 30.69 in NW 3.0 mph 9.0 mph 62 % 0.00 in
13:35 20.7 °F 9.8 °F 30.69 in NW 3.0 mph 8.0 mph 62 % 0.00 in
13:37 21.0 °F 10.0 °F 30.68 in WNW 2.0 mph 6.0 mph 63 % 0.00 in
13:40 20.7 °F 9.8 °F 30.69 in NW 3.0 mph 8.0 mph 62 % 0.00 in
13:45 20.7 °F 9.8 °F 30.69 in NW 3.0 mph 8.0 mph 62 % 0.00 in
13:50 21.1 °F 9.8 °F 30.69 in WNW 3.0 mph 9.0 mph 61 % 0.00 in
13:52 21.2 °F 10.0 °F 30.69 in NW 2.0 mph 10.0 mph 62 % 0.00 in
13:55 21.1 °F 9.8 °F 30.69 in WNW 3.0 mph 9.0 mph 61 % 0.00 in
14:00 21.1 °F 9.8 °F 30.69 in WNW 3.0 mph 9.0 mph 61 % 0.00 in
14:05 21.1 °F 9.4 °F 30.70 in NW 4.0 mph 10.0 mph 60 % 0.00 in
14:08 21.0 °F 9.0 °F 30.69 in NW 2.0 mph 8.0 mph 61 % 0.00 in
14:10 21.1 °F 9.4 °F 30.70 in NW 4.0 mph 10.0 mph 60 % 0.00 in
14:15 21.1 °F 9.4 °F 30.70 in NW 4.0 mph 10.0 mph 60 % 0.00 in
14:20 21.0 °F 9.3 °F 30.70 in NW 3.0 mph 10.0 mph 60 % 0.00 in
14:22 20.7 °F 9.0 °F 30.70 in West 4.0 mph 8.0 mph 60 % 0.00 in
14:25 21.0 °F 9.3 °F 30.70 in NW 3.0 mph 10.0 mph 60 % 0.00 in
14:30 21.0 °F 9.3 °F 30.70 in NW 3.0 mph 10.0 mph 60 % 0.00 in
14:35 20.7 °F 8.7 °F 30.70 in NW 3.0 mph 9.0 mph 59 % 0.00 in
14:37 20.4 °F 8.0 °F 30.70 in NNW 4.0 mph 10.0 mph 59 % 0.00 in
14:40 20.7 °F 8.7 °F 30.70 in NW 3.0 mph 9.0 mph 59 % 0.00 in
14:45 20.7 °F 8.7 °F 30.70 in NW 3.0 mph 9.0 mph 59 % 0.00 in
14:50 20.4 °F 8.0 °F 30.71 in NW 4.0 mph 10.0 mph 58 % 0.00 in
14:52 20.2 °F 8.0 °F 30.71 in WNW 3.0 mph 7.0 mph 59 % 0.00 in
14:55 20.4 °F 8.0 °F 30.71 in NW 4.0 mph 10.0 mph 58 % 0.00 in
15:00 20.4 °F 8.0 °F 30.71 in NW 4.0 mph 10.0 mph 58 % 0.00 in
15:05 20.2 °F 7.8 °F 30.72 in NW 3.0 mph 11.0 mph 58 % 0.00 in
15:07 20.0 °F 8.0 °F 30.71 in NW 3.0 mph 12.0 mph 59 % 0.00 in
15:10 20.2 °F 7.8 °F 30.72 in NW 3.0 mph 11.0 mph 58 % 0.00 in
15:15 20.2 °F 7.8 °F 30.72 in NW 3.0 mph 11.0 mph 58 % 0.00 in
15:20 20.0 °F 7.2 °F 30.73 in NW 4.0 mph 12.0 mph 57 % 0.00 in
15:22 19.7 °F 7.0 °F 30.72 in NW 2.0 mph 11.0 mph 58 % 0.00 in
15:25 20.0 °F 7.2 °F 30.73 in NW 4.0 mph 12.0 mph 57 % 0.00 in
15:30 20.0 °F 7.2 °F 30.73 in NW 4.0 mph 12.0 mph 57 % 0.00 in
15:35 19.7 °F 7.0 °F 30.73 in NW 3.0 mph 9.0 mph 57 % 0.00 in
15:37 19.8 °F 7.0 °F 30.73 in NW 1.0 mph 10.0 mph 57 % 0.00 in
15:40 19.7 °F 7.0 °F 30.73 in NW 3.0 mph 9.0 mph 57 % 0.00 in
15:45 19.7 °F 7.0 °F 30.73 in NW 3.0 mph 9.0 mph 57 % 0.00 in
15:50 19.7 °F 6.2 °F 30.73 in NW 4.0 mph 11.0 mph 55 % 0.00 in
15:52 19.6 °F 7.0 °F 30.73 in NW 2.0 mph 9.0 mph 57 % 0.00 in
15:55 19.7 °F 6.2 °F 30.73 in NW 4.0 mph 11.0 mph 55 % 0.00 in
16:00 19.7 °F 6.2 °F 30.73 in NW 4.0 mph 11.0 mph 55 % 0.00 in
16:05 19.6 °F 6.5 °F 30.74 in NW 3.0 mph 9.0 mph 56 % 0.00 in
16:07 19.5 °F 6.0 °F 30.73 in NW 4.0 mph 8.0 mph 56 % 0.00 in
16:10 19.6 °F 6.5 °F 30.74 in NW 3.0 mph 9.0 mph 56 % 0.00 in
16:15 19.6 °F 6.5 °F 30.74 in NW 3.0 mph 9.0 mph 56 % 0.00 in
16:20 19.5 °F 6.0 °F 30.74 in NW 3.0 mph 10.0 mph 55 % 0.00 in
16:22 19.3 °F 6.0 °F 30.74 in NW 1.0 mph 9.0 mph 56 % 0.00 in
16:25 19.5 °F 6.0 °F 30.74 in NW 3.0 mph 10.0 mph 55 % 0.00 in
16:30 19.3 °F 5.8 °F 30.74 in NW 3.0 mph 11.0 mph 55 % 0.00 in
16:35 19.3 °F 5.8 °F 30.74 in NW 3.0 mph 11.0 mph 55 % 0.00 in
16:37 19.1 °F 6.0 °F 30.74 in NW 8.0 mph 8.0 mph 56 % 0.00 in
16:40 19.3 °F 5.8 °F 30.74 in NW 3.0 mph 11.0 mph 55 % 0.00 in
16:45 19.0 °F 5.5 °F 30.75 in NW 3.0 mph 10.0 mph 55 % 0.00 in
16:50 19.0 °F 5.5 °F 30.75 in NW 3.0 mph 10.0 mph 55 % 0.00 in
16:52 18.7 °F 6.0 °F 30.75 in NW 4.0 mph 9.0 mph 57 % 0.00 in
16:55 19.0 °F 5.5 °F 30.75 in NW 3.0 mph 10.0 mph 55 % 0.00 in
17:00 18.7 °F 5.7 °F 30.75 in NW 2.0 mph 5.0 mph 56 % 0.00 in
17:05 18.7 °F 5.7 °F 30.75 in NW 2.0 mph 5.0 mph 56 % 0.00 in
17:07 18.2 °F 5.0 °F 30.75 in NW 3.0 mph 8.0 mph 57 % 0.00 in
17:10 18.7 °F 5.7 °F 30.75 in NW 2.0 mph 5.0 mph 56 % 0.00 in
17:15 18.2 °F 5.6 °F 30.75 in NW 2.0 mph 8.0 mph 57 % 0.00 in
17:20 18.2 °F 5.6 °F 30.75 in NW 2.0 mph 8.0 mph 57 % 0.00 in
17:22 17.8 °F 5.0 °F 30.75 in Calm   4.0 mph 58 % 0.00 in
17:25 18.2 °F 5.6 °F 30.75 in NW 2.0 mph 8.0 mph 57 % 0.00 in
17:30 17.7 °F 5.5 °F 30.76 in NW 2.0 mph 5.0 mph 58 % 0.00 in
17:35 17.7 °F 5.5 °F 30.76 in NW 2.0 mph 5.0 mph 58 % 0.00 in
17:37 17.2 °F 5.0 °F 30.75 in NW 4.0 mph 5.0 mph 60 % 0.00 in
17:40 17.7 °F 5.5 °F 30.76 in NW 2.0 mph 5.0 mph 58 % 0.00 in
17:45 17.2 °F 5.4 °F 30.76 in NW 2.0 mph 6.0 mph 59 % 0.00 in
17:50 17.2 °F 5.4 °F 30.76 in NW 2.0 mph 6.0 mph 59 % 0.00 in
17:52 16.7 °F 5.0 °F 30.76 in WNW 2.0 mph 6.0 mph 61 % 0.00 in
17:55 17.2 °F 5.4 °F 30.76 in NW 2.0 mph 6.0 mph 59 % 0.00 in
18:00 17.2 °F 5.4 °F 30.76 in NW 2.0 mph 6.0 mph 59 % 0.00 in
18:05 16.7 °F 5.6 °F 30.76 in NW 2.0 mph 6.0 mph 61 % 0.00 in
18:07 16.2 °F 5.0 °F 30.76 in WNW 2.0 mph 6.0 mph 62 % 0.00 in
18:10 16.7 °F 5.6 °F 30.76 in NW 2.0 mph 6.0 mph 61 % 0.00 in
18:15 16.7 °F 5.6 °F 30.76 in NW 2.0 mph 6.0 mph 61 % 0.00 in
18:20 16.2 °F 5.5 °F 30.77 in WNW 2.0 mph 7.0 mph 62 % 0.00 in
18:22 15.8 °F 5.0 °F 30.76 in Calm   6.0 mph 63 % 0.00 in
18:25 16.2 °F 5.5 °F 30.77 in WNW 2.0 mph 7.0 mph 62 % 0.00 in
18:30 16.2 °F 5.5 °F 30.77 in WNW 2.0 mph 7.0 mph 62 % 0.00 in
18:35 15.8 °F 5.5 °F 30.77 in WNW 2.0 mph 7.0 mph 63 % 0.00 in
18:37 15.3 °F 5.0 °F 30.77 in North 2.0 mph 4.0 mph 65 % 0.00 in
18:40 15.8 °F 5.5 °F 30.77 in WNW 2.0 mph 7.0 mph 63 % 0.00 in
18:45 15.8 °F 5.5 °F 30.77 in WNW 2.0 mph 7.0 mph 63 % 0.00 in
18:50 15.3 °F 5.3 °F 30.77 in NE 1.0 mph 4.0 mph 64 % 0.00 in
18:52 14.6 °F 5.0 °F 30.77 in NNE 1.0 mph 4.0 mph 66 % 0.00 in
18:55 15.3 °F 5.3 °F 30.77 in NE 1.0 mph 4.0 mph 64 % 0.00 in
19:00 15.3 °F 5.3 °F 30.77 in NE 1.0 mph 4.0 mph 64 % 0.00 in
19:05 14.6 °F 5.0 °F 30.77 in NNE 1.0 mph 4.0 mph 65 % 0.00 in
19:07 14.0 °F 5.0 °F 30.77 in NNE 1.0 mph 4.0 mph 67 % 0.00 in
19:10 14.6 °F 5.0 °F 30.77 in NNE 1.0 mph 4.0 mph 65 % 0.00 in
19:15 14.6 °F 5.0 °F 30.77 in NNE 1.0 mph 4.0 mph 65 % 0.00 in
19:20 14.0 °F 4.8 °F 30.77 in NNE 1.0 mph 4.0 mph 66 % 0.00 in
19:23 13.4 °F 4.0 °F 30.78 in Calm   4.0 mph 67 % 0.00 in
19:25 14.0 °F 4.8 °F 30.77 in NNE 1.0 mph 4.0 mph 66 % 0.00 in
19:30 14.0 °F 4.8 °F 30.77 in NNE 1.0 mph 4.0 mph 66 % 0.00 in
19:35 13.4 °F 4.5 °F 30.78 in NE 1.0 mph 4.0 mph 67 % 0.00 in
19:38 13.0 °F 4.0 °F 30.77 in Calm   4.0 mph 68 % 0.00 in
19:40 13.4 °F 4.5 °F 30.78 in NE 1.0 mph 4.0 mph 67 % 0.00 in
19:45 13.4 °F 4.5 °F 30.78 in NE 1.0 mph 4.0 mph 67 % 0.00 in
19:50 12.7 °F 3.8 °F 30.78 in NNW 1.0 mph 1.0 mph 67 % 0.00 in
19:52 12.6 °F 4.0 °F 30.78 in North 2.0 mph 5.0 mph 68 % 0.00 in
19:55 12.6 °F 3.8 °F 30.78 in NNW 1.0 mph 3.0 mph 67 % 0.00 in
20:00 12.5 °F 3.7 °F 30.79 in NNW 1.0 mph   67 % 0.00 in
20:05 12.3 °F 3.8 °F 30.79 in Calm   2.0 mph 68 % 0.00 in
20:08 12.2 °F 4.0 °F 30.78 in WNW 1.0 mph 4.0 mph 69 % 0.00 in
20:10 12.2 °F 3.7 °F 30.79 in Calm   2.0 mph 68 % 0.00 in
20:13 12.8 °F 4.2 °F 30.77 in NE 12.0 mph 12.0 mph 68 % 0.00 in
20:15 12.2 °F 3.7 °F 30.79 in Calm   2.0 mph 68 % 0.00 in
20:18 12.0 °F 3.8 °F 30.78 in ENE 6.0 mph 6.0 mph 69 % 0.00 in
20:20 12.6 °F 4.1 °F 30.79 in NNW 1.0 mph 5.0 mph 68 % 0.00 in
20:25 12.6 °F 4.1 °F 30.79 in NNW 1.0 mph 5.0 mph 68 % 0.00 in
20:30 12.2 °F 3.7 °F 30.79 in WNW 1.0 mph 4.0 mph 68 % 0.00 in
20:35 12.2 °F 3.7 °F 30.79 in WNW 1.0 mph 4.0 mph 68 % 0.00 in
20:38 11.5 °F 3.0 °F 30.78 in Calm   4.0 mph 69 % 0.00 in
20:40 12.2 °F 3.7 °F 30.79 in WNW 1.0 mph 4.0 mph 68 % 0.00 in
20:45 11.8 °F 3.3 °F 30.79 in NE 1.0 mph 6.0 mph 68 % 0.00 in
20:50 11.8 °F 3.3 °F 30.79 in NE 1.0 mph 6.0 mph 68 % 0.00 in
20:53 11.1 °F 3.0 °F 30.78 in NE 2.0 mph 4.0 mph 70 % 0.00 in
20:55 11.8 °F 3.3 °F 30.79 in NE 1.0 mph 6.0 mph 68 % 0.00 in
21:00 11.5 °F 3.0 °F 30.79 in NNE 1.0 mph 4.0 mph 68 % 0.00 in
21:05 11.5 °F 3.0 °F 30.79 in NNE 1.0 mph 4.0 mph 68 % 0.00 in
21:08 10.8 °F 3.0 °F 30.80 in Calm   1.0 mph 70 % 0.00 in
21:10 11.5 °F 3.0 °F 30.79 in NNE 1.0 mph 4.0 mph 68 % 0.00 in
21:15 11.1 °F 3.0 °F 30.79 in Calm   4.0 mph 69 % 0.00 in
21:20 11.1 °F 3.0 °F 30.79 in Calm   4.0 mph 69 % 0.00 in
21:23 10.4 °F 3.0 °F 30.80 in Calm   3.0 mph 71 % 0.00 in
21:25 11.1 °F 3.0 °F 30.79 in Calm   4.0 mph 69 % 0.00 in
21:30 10.8 °F 3.0 °F 30.81 in Calm   2.0 mph 70 % 0.00 in
21:35 10.8 °F 3.0 °F 30.81 in Calm   2.0 mph 70 % 0.00 in
21:38 10.2 °F 3.0 °F 30.81 in NW 1.0 mph 3.0 mph 72 % 0.00 in
21:40 10.8 °F 3.0 °F 30.81 in Calm   2.0 mph 70 % 0.00 in
21:45 10.4 °F 2.9 °F 30.81 in NW 1.0 mph 3.0 mph 71 % 0.00 in
21:50 10.4 °F 2.9 °F 30.81 in NW 1.0 mph 3.0 mph 71 % 0.00 in
21:53 9.9 °F 3.0 °F 30.80 in Calm   3.0 mph 72 % 0.00 in
21:55 10.4 °F 2.9 °F 30.81 in NW 1.0 mph 3.0 mph 71 % 0.00 in
22:00 10.1 °F 2.6 °F 30.81 in NW 1.0 mph 3.0 mph 71 % 0.00 in
22:05 10.1 °F 2.6 °F 30.81 in NW 1.0 mph 3.0 mph 71 % 0.00 in
22:08 9.6 °F 2.0 °F 30.79 in NNE 1.0 mph 3.0 mph 72 % 0.00 in
22:10 10.1 °F 2.6 °F 30.81 in NW 1.0 mph 3.0 mph 71 % 0.00 in
22:15 9.9 °F 2.4 °F 30.80 in Calm   3.0 mph 71 % 0.00 in
22:20 9.9 °F 2.4 °F 30.80 in Calm   3.0 mph 71 % 0.00 in
22:23 9.3 °F 2.0 °F 30.79 in Calm     73 % 0.00 in
22:25 9.9 °F 2.4 °F 30.80 in Calm   3.0 mph 71 % 0.00 in
22:30 9.6 °F 2.4 °F 30.80 in Calm   3.0 mph 72 % 0.00 in
22:35 9.6 °F 2.4 °F 30.80 in Calm   3.0 mph 72 % 0.00 in
22:38 8.9 °F 2.0 °F 30.79 in Calm     73 % 0.00 in
22:40 9.6 °F 2.4 °F 30.80 in Calm   3.0 mph 72 % 0.00 in
22:45 9.3 °F 2.1 °F 30.79 in Calm   1.0 mph 72 % 0.00 in
22:50 9.3 °F 2.1 °F 30.79 in Calm   1.0 mph 72 % 0.00 in
22:53 8.6 °F 2.0 °F 30.80 in Calm     74 % 0.00 in
22:55 9.3 °F 2.1 °F 30.79 in Calm   1.0 mph 72 % 0.00 in
23:00 8.9 °F 1.7 °F 30.80 in Calm     72 % 0.00 in
23:05 8.9 °F 1.7 °F 30.80 in Calm     72 % 0.00 in
23:08 8.1 °F 1.0 °F 30.80 in Calm     74 % 0.00 in
23:10 8.9 °F 1.7 °F 30.80 in Calm     72 % 0.00 in
23:15 8.6 °F 1.8 °F 30.80 in Calm     73 % 0.00 in
23:20 8.6 °F 1.8 °F 30.80 in Calm     73 % 0.00 in
23:23 7.6 °F 1.0 °F 30.79 in Calm     74 % 0.00 in
23:25 8.6 °F 1.8 °F 30.80 in Calm     73 % 0.00 in
23:30 8.1 °F 1.3 °F 30.80 in Calm     73 % 0.00 in
23:35 8.1 °F 1.3 °F 30.80 in Calm     73 % 0.00 in
23:38 7.2 °F 1.0 °F 30.79 in Calm     75 % 0.00 in
23:40 8.1 °F 1.3 °F 30.80 in Calm     73 % 0.00 in
23:45 7.6 °F 1.1 °F 30.80 in Calm     74 % 0.00 in
23:50 7.6 °F 1.1 °F 30.80 in Calm     74 % 0.00 in
23:53 6.9 °F 1.0 °F 30.79 in Calm     76 % 0.00 in
23:55 7.6 °F 1.1 °F 30.80 in Calm     74 % 0.00 in
Des Moines Weather and Climate
Compliments of Weather Underground - 4.5 mb

Script developed by  Jim McMurry - jmcmurry@mwt.net Adapted for the template by  Wim van der Kuil - Leuven-Template.eu

You find our weather info also at:

Weather Underground

Equipment we use:

Weather-station
Davis VP2 Plus

Weather-program
Davis Weatherlink.Com

Weather-server
iMac (Retina 4K, 21.5-inch, Late 2015)

Provider
Hostmonster.com

Davis VP2 Plus

Davis Weatherlink.Com

iMac (Retina 4K, 21.5-inch, Late 2015)

Hostmonster.com